Bouldin Island, California
Current Conditions -  °F | °C
As of 8:58 AM on Wednesday 26 Nov 2014 (Local Time) from KSUU Reporting Station
Clear Clear  
Wind Chill: 50°   Ceiling: Unl
Heat Index: 50°   Visibility: 10mi
Dew Point: 50°   Wind: 7mph
Humidity: 99%   Direction: 60°ENE
Pressure: 30.34"   Gusts: NA
Location:  38.1457°N, 121.624°W
Report Text: KSUU 261658Z AUTO 06006KT 10SM CLR 10/10 A3034 RMK AO2 VIS 2 1/2 RWY03R SLP281 T01000099 $
Loading
Personal Weather Stations






























Interactive Weather Map New forecast layout! Learn more

10-Day Weather Forecast

Advertisements
Track Severe Weather on mobile